createdAt,value
2019-04-01T00:00:39.815Z,90.00
2019-04-01T00:01:52.078Z,90.00
2019-04-01T00:02:56.643Z,90.00
2019-04-01T00:04:01.164Z,90.00
2019-04-01T00:05:05.688Z,90.30
2019-04-01T00:06:10.180Z,90.40
2019-04-01T00:07:14.738Z,90.30
2019-04-01T00:08:19.299Z,90.10
2019-04-01T00:09:23.874Z,90.40
2019-04-01T00:10:28.372Z,90.80
2019-04-01T00:11:32.863Z,90.80
2019-04-01T00:12:37.339Z,90.80
2019-04-01T00:13:41.687Z,90.80
2019-04-01T00:14:46.295Z,90.80
2019-04-01T00:15:50.817Z,91.20
2019-04-01T00:16:55.278Z,91.40
2019-04-01T00:17:59.644Z,91.30
2019-04-01T00:19:04.216Z,91.30
2019-04-01T00:20:08.792Z,91.60
2019-04-01T00:21:13.143Z,91.70
2019-04-01T00:22:17.617Z,91.60
2019-04-01T00:23:21.995Z,91.60
2019-04-01T00:24:26.318Z,91.60
2019-04-01T00:25:30.745Z,91.70
2019-04-01T00:26:35.094Z,91.80
2019-04-01T00:27:39.477Z,91.70
2019-04-01T00:28:43.952Z,92.20
2019-04-01T00:29:48.291Z,91.90
2019-04-01T00:30:52.765Z,91.70
2019-04-01T00:31:57.253Z,91.80
2019-04-01T00:33:01.702Z,91.70
2019-04-01T00:34:06.064Z,91.60
2019-04-01T00:35:10.494Z,91.50
2019-04-01T00:36:14.861Z,91.60
2019-04-01T00:37:19.249Z,91.60
2019-04-01T00:38:24.576Z,91.80
2019-04-01T00:39:29.053Z,91.60
2019-04-01T00:40:33.687Z,91.70
2019-04-01T00:41:47.519Z,91.80
2019-04-01T00:43:10.958Z,91.80
2019-04-01T00:44:15.445Z,92.00
2019-04-01T00:45:20.709Z,92.00
2019-04-01T00:46:25.417Z,91.80
2019-04-01T00:47:29.886Z,91.70
2019-04-01T00:48:34.412Z,91.50
2019-04-01T00:49:39.095Z,91.60
2019-04-01T00:50:43.592Z,91.70
2019-04-01T00:51:48.085Z,91.80
2019-04-01T00:52:52.639Z,91.90
2019-04-01T00:53:57.487Z,91.70
2019-04-01T00:55:01.999Z,91.60
2019-04-01T00:56:06.526Z,91.70
2019-04-01T00:57:10.882Z,91.80
2019-04-01T00:58:15.389Z,91.50
2019-04-01T00:59:19.801Z,91.60
2019-04-01T01:00:24.260Z,91.50
2019-04-01T01:01:28.725Z,91.50
2019-04-01T01:02:33.226Z,91.60
2019-04-01T01:03:37.820Z,91.90
2019-04-01T01:04:42.232Z,91.90
2019-04-01T01:05:46.605Z,92.00
2019-04-01T01:06:50.979Z,92.20
2019-04-01T01:07:55.422Z,92.50
2019-04-01T01:08:59.847Z,92.20
2019-04-01T01:10:05.519Z,92.10
2019-04-01T01:11:10.000Z,92.00
2019-04-01T01:12:14.512Z,92.20
2019-04-01T01:13:18.987Z,92.20
2019-04-01T01:14:23.382Z,92.30
2019-04-01T01:15:27.785Z,92.20
2019-04-01T01:16:32.397Z,92.40
2019-04-01T01:17:36.836Z,92.50
2019-04-01T01:18:41.230Z,92.20
2019-04-01T01:19:45.661Z,92.20
2019-04-01T01:20:50.053Z,92.30
2019-04-01T01:21:54.453Z,92.50
2019-04-01T01:22:58.842Z,92.40
2019-04-01T01:24:03.417Z,92.50
2019-04-01T01:25:08.130Z,92.70
2019-04-01T01:26:12.715Z,92.80
2019-04-01T01:27:17.228Z,92.80
2019-04-01T01:28:21.787Z,92.80
2019-04-01T01:29:26.297Z,92.60
2019-04-01T01:30:30.900Z,92.80
2019-04-01T01:31:35.515Z,93.00
2019-04-01T01:32:40.169Z,93.20
2019-04-01T01:33:44.679Z,93.00
2019-04-01T01:34:49.124Z,92.90
2019-04-01T01:35:53.617Z,93.10
2019-04-01T01:36:58.122Z,93.20
2019-04-01T01:38:02.561Z,93.20
2019-04-01T01:39:07.089Z,93.30
2019-04-01T01:40:11.632Z,93.50
2019-04-01T01:41:16.021Z,93.60
2019-04-01T01:42:20.480Z,93.90
2019-04-01T01:43:25.337Z,93.70
2019-04-01T01:44:29.703Z,94.00
2019-04-01T01:45:34.052Z,93.90
2019-04-01T01:46:48.966Z,94.20
2019-04-01T01:47:53.383Z,94.30
2019-04-01T01:48:57.845Z,94.20
2019-04-01T01:50:02.258Z,94.30
2019-04-01T01:51:08.718Z,94.40
2019-04-01T01:52:13.084Z,94.60
2019-04-01T01:53:17.523Z,94.40
2019-04-01T01:54:22.007Z,94.20
2019-04-01T01:55:26.381Z,94.30
2019-04-01T01:56:30.773Z,94.40
2019-04-01T01:57:35.135Z,94.40
2019-04-01T01:58:39.466Z,94.60
2019-04-01T01:59:43.893Z,94.70
2019-04-01T02:00:48.301Z,94.80
2019-04-01T02:01:52.725Z,94.80
2019-04-01T02:02:57.033Z,94.90
2019-04-01T02:04:01.474Z,95.00
2019-04-01T02:05:06.040Z,95.00
2019-04-01T02:06:10.524Z,94.90
2019-04-01T02:07:15.060Z,94.90
2019-04-01T02:08:19.376Z,95.00
2019-04-01T02:09:23.904Z,95.00
2019-04-01T02:10:28.434Z,95.20
2019-04-01T02:11:32.966Z,95.40
2019-04-01T02:12:37.290Z,95.40
2019-04-01T02:13:41.772Z,95.60
2019-04-01T02:14:46.133Z,95.60
2019-04-01T02:15:50.595Z,95.60
2019-04-01T02:16:55.000Z,95.60
2019-04-01T02:17:59.441Z,95.90
2019-04-01T02:19:03.887Z,95.90
2019-04-01T02:20:08.348Z,96.10
2019-04-01T02:21:12.742Z,96.00
2019-04-01T02:22:17.264Z,96.20
2019-04-01T02:23:21.603Z,96.20
2019-04-01T02:24:25.971Z,96.40
2019-04-01T02:25:30.427Z,96.60
2019-04-01T02:26:34.805Z,96.70
2019-04-01T02:27:39.115Z,96.80
2019-04-01T02:28:43.553Z,96.80
2019-04-01T02:29:47.948Z,96.90
2019-04-01T02:30:52.360Z,97.10
2019-04-01T02:31:56.808Z,96.80
2019-04-01T02:33:01.402Z,96.90
2019-04-01T02:34:05.852Z,97.00
2019-04-01T02:35:10.357Z,97.00
2019-04-01T02:36:14.800Z,97.10
2019-04-01T02:37:19.119Z,97.00
2019-04-01T02:38:23.528Z,97.10
2019-04-01T02:39:27.932Z,97.00
2019-04-01T02:40:32.866Z,97.00
2019-04-01T02:41:37.374Z,96.90
2019-04-01T02:42:41.930Z,97.00
2019-04-01T02:43:46.443Z,97.10
2019-04-01T02:44:50.844Z,97.00
2019-04-01T02:45:55.360Z,97.20
2019-04-01T02:46:59.706Z,97.10
2019-04-01T02:48:04.180Z,97.20
2019-04-01T02:49:08.710Z,97.10
2019-04-01T02:50:13.424Z,97.20
2019-04-01T02:51:17.920Z,97.10
2019-04-01T02:52:22.256Z,97.40
2019-04-01T02:53:26.770Z,97.40
2019-04-01T02:54:31.162Z,97.40
2019-04-01T02:55:35.710Z,97.30
2019-04-01T02:56:40.183Z,97.10
2019-04-01T02:57:44.624Z,97.10
2019-04-01T02:58:49.147Z,97.00
2019-04-01T02:59:53.530Z,97.00
2019-04-01T03:00:57.961Z,97.30
2019-04-01T03:02:02.501Z,97.30
2019-04-01T03:03:06.869Z,97.30
2019-04-01T03:04:11.300Z,97.10
2019-04-01T03:05:15.903Z,97.20
2019-04-01T03:06:20.325Z,97.20
2019-04-01T03:07:24.775Z,97.20
2019-04-01T03:08:29.256Z,97.30
2019-04-01T03:09:33.819Z,97.40
2019-04-01T03:10:38.214Z,97.50
2019-04-01T03:11:42.638Z,97.30
2019-04-01T03:12:47.064Z,97.40
2019-04-01T03:13:51.480Z,97.60
2019-04-01T03:14:56.026Z,97.50
2019-04-01T03:16:00.425Z,97.70
2019-04-01T03:17:04.990Z,97.60
2019-04-01T03:18:09.511Z,97.60
2019-04-01T03:19:13.829Z,97.50
2019-04-01T03:20:18.312Z,97.60
2019-04-01T03:21:22.760Z,97.60
2019-04-01T03:22:27.227Z,97.60
2019-04-01T03:23:32.764Z,97.50
2019-04-01T03:24:37.171Z,97.50
2019-04-01T03:25:41.770Z,97.50
2019-04-01T03:26:46.370Z,97.50
2019-04-01T03:27:51.044Z,97.40
2019-04-01T03:28:55.393Z,97.50
2019-04-01T03:29:59.907Z,97.50
2019-04-01T03:31:04.354Z,97.60
2019-04-01T03:32:08.849Z,97.50
2019-04-01T03:33:13.284Z,97.60
2019-04-01T03:34:17.716Z,97.40
2019-04-01T03:35:22.176Z,97.40
2019-04-01T03:36:26.864Z,97.40
2019-04-01T03:37:31.296Z,97.20
2019-04-01T03:38:35.763Z,97.30
2019-04-01T03:39:40.180Z,97.30
2019-04-01T03:40:44.631Z,97.20
2019-04-01T03:41:48.985Z,97.40
2019-04-01T03:42:53.549Z,97.30
2019-04-01T03:43:57.979Z,97.30
2019-04-01T03:45:02.470Z,97.30
2019-04-01T03:46:06.987Z,97.50
2019-04-01T03:47:11.389Z,97.30
2019-04-01T03:48:15.813Z,97.20
2019-04-01T03:49:20.361Z,97.30
2019-04-01T03:50:24.862Z,97.80
2019-04-01T03:51:29.303Z,97.50
2019-04-01T03:52:33.684Z,97.50
2019-04-01T03:53:38.195Z,97.40
2019-04-01T03:54:42.672Z,97.60
2019-04-01T03:55:47.131Z,97.90
2019-04-01T03:56:52.043Z,97.50
2019-04-01T03:57:56.455Z,97.70
2019-04-01T03:59:00.848Z,97.80
2019-04-01T04:00:05.698Z,97.90
2019-04-01T04:01:10.128Z,97.80
2019-04-01T04:02:14.552Z,97.80
2019-04-01T04:03:19.077Z,98.10
2019-04-01T04:04:23.479Z,98.30
2019-04-01T04:05:27.827Z,98.20
2019-04-01T04:06:32.309Z,98.30
2019-04-01T04:07:36.735Z,98.40
2019-04-01T04:08:41.323Z,98.60
2019-04-01T04:09:45.748Z,99.00
2019-04-01T04:10:50.152Z,99.00
2019-04-01T04:11:54.562Z,98.70
2019-04-01T04:12:59.410Z,98.90
2019-04-01T04:14:03.913Z,99.10
2019-04-01T04:15:08.815Z,99.30
2019-04-01T04:16:13.235Z,99.80
2019-04-01T04:17:17.657Z,99.50
2019-04-01T04:18:21.997Z,99.90
2019-04-01T04:19:26.457Z,99.90
2019-04-01T04:21:17.400Z,99.70
2019-04-01T04:22:21.828Z,99.60
2019-04-01T04:23:26.186Z,99.90
2019-04-01T04:24:30.694Z,99.90
2019-04-01T04:25:35.794Z,99.90
2019-04-01T04:26:40.088Z,99.90
2019-04-01T04:27:44.449Z,99.90
2019-04-01T04:28:48.812Z,99.90
2019-04-01T04:29:53.310Z,99.90
2019-04-01T04:30:57.835Z,99.90
2019-04-01T04:32:02.253Z,99.90
2019-04-01T04:33:06.710Z,99.90
2019-04-01T04:34:11.295Z,99.90
2019-04-01T04:35:15.703Z,99.90
2019-04-01T04:36:20.235Z,99.90
2019-04-01T04:37:24.817Z,99.90
2019-04-01T04:38:29.300Z,99.90
2019-04-01T04:39:34.050Z,99.90
2019-04-01T04:40:40.953Z,99.90
2019-04-01T04:41:44.682Z,99.90
2019-04-01T04:42:49.365Z,99.90
2019-04-01T04:43:53.755Z,99.90
2019-04-01T04:44:58.286Z,99.90
2019-04-01T04:46:02.634Z,99.90
2019-04-01T04:47:07.185Z,99.90
2019-04-01T04:48:11.495Z,99.90
2019-04-01T04:49:15.910Z,99.90
2019-04-01T04:50:20.416Z,99.90
2019-04-01T04:51:24.947Z,99.90
2019-04-01T04:52:29.392Z,99.90
2019-04-01T04:53:33.798Z,99.90
2019-04-01T04:54:38.385Z,99.90
2019-04-01T04:55:42.782Z,99.90
2019-04-01T04:56:47.172Z,99.90
2019-04-01T04:57:51.658Z,99.90
2019-04-01T04:58:56.000Z,99.90
2019-04-01T05:00:00.347Z,99.90
2019-04-01T05:01:05.383Z,99.90
2019-04-01T05:02:09.737Z,99.90
2019-04-01T05:03:14.254Z,99.90
2019-04-01T05:04:18.673Z,99.90
2019-04-01T05:05:23.139Z,99.90
2019-04-01T05:06:27.451Z,99.90
2019-04-01T05:07:31.770Z,99.90
2019-04-01T05:08:36.100Z,99.90
2019-04-01T05:09:40.614Z,99.90
2019-04-01T05:10:45.209Z,99.90
2019-04-01T05:11:49.681Z,99.90
2019-04-01T05:12:54.355Z,99.90
2019-04-01T05:13:59.363Z,99.90
2019-04-01T05:15:04.085Z,99.90
2019-04-01T05:16:08.714Z,99.90
2019-04-01T05:17:13.240Z,99.90
2019-04-01T05:18:17.544Z,99.90
2019-04-01T05:19:22.591Z,99.90
2019-04-01T05:20:27.869Z,99.90
2019-04-01T05:21:33.688Z,99.90
2019-04-01T05:22:40.033Z,99.90
2019-04-01T05:23:45.351Z,99.90
2019-04-01T05:24:50.106Z,99.90
2019-04-01T05:25:55.413Z,99.90
2019-04-01T05:27:00.958Z,99.90
2019-04-01T05:28:05.470Z,99.90
2019-04-01T05:29:11.028Z,99.90
2019-04-01T05:30:15.614Z,99.90
2019-04-01T05:31:22.089Z,99.90
2019-04-01T05:32:28.684Z,99.90
2019-04-01T05:33:34.552Z,99.90
2019-04-01T05:34:41.515Z,99.90
2019-04-01T05:35:46.012Z,99.90
2019-04-01T05:36:50.648Z,99.90
2019-04-01T05:37:57.991Z,99.90
2019-04-01T05:39:02.553Z,99.90
2019-04-01T05:40:07.582Z,99.90
2019-04-01T05:41:12.779Z,99.90
2019-04-01T05:42:17.616Z,99.90
2019-04-01T05:43:22.900Z,99.90
2019-04-01T05:44:28.631Z,99.90
2019-04-01T05:45:33.412Z,99.90
2019-04-01T05:46:37.916Z,99.90
2019-04-01T05:47:45.687Z,99.90
2019-04-01T05:48:50.150Z,99.90
2019-04-01T05:49:54.642Z,99.90
2019-04-01T05:50:59.035Z,99.90
2019-04-01T05:52:03.597Z,99.90
2019-04-01T05:53:08.227Z,99.90
2019-04-01T05:54:12.647Z,99.90
2019-04-01T05:55:17.170Z,99.90
2019-04-01T05:56:21.753Z,99.90
2019-04-01T05:57:26.295Z,99.90
2019-04-01T05:58:30.796Z,99.90
2019-04-01T05:59:35.349Z,99.80
2019-04-01T06:00:44.222Z,99.70
2019-04-01T06:01:48.848Z,99.60
2019-04-01T06:02:53.362Z,99.30
2019-04-01T06:03:57.882Z,99.10
2019-04-01T06:05:02.239Z,98.90
2019-04-01T06:06:06.824Z,98.70
2019-04-01T06:07:11.141Z,98.50
2019-04-01T06:08:15.630Z,98.30
2019-04-01T06:09:20.034Z,98.00
2019-04-01T06:10:24.451Z,97.80
2019-04-01T06:11:28.872Z,97.60
2019-04-01T06:12:33.302Z,97.30
2019-04-01T06:13:37.704Z,97.10
2019-04-01T06:14:44.489Z,97.00
2019-04-01T06:15:48.955Z,96.70
2019-04-01T06:16:54.717Z,96.50
2019-04-01T06:17:59.239Z,96.40
2019-04-01T06:19:06.015Z,96.20
2019-04-01T06:20:09.619Z,96.10
2019-04-01T06:21:14.667Z,95.70
2019-04-01T06:22:19.202Z,95.50
2019-04-01T06:23:23.586Z,95.30
2019-04-01T06:24:28.087Z,95.20
2019-04-01T06:25:32.540Z,94.90
2019-04-01T06:26:37.074Z,94.70
2019-04-01T06:27:41.552Z,94.70
2019-04-01T06:28:46.269Z,94.50
2019-04-01T06:29:50.770Z,94.40
2019-04-01T06:30:55.358Z,94.20
2019-04-01T06:31:59.826Z,94.00
2019-04-01T06:33:04.639Z,93.80
2019-04-01T06:34:09.189Z,93.50
2019-04-01T06:35:13.879Z,93.40
2019-04-01T06:36:18.437Z,93.30
2019-04-01T06:37:23.079Z,93.10
2019-04-01T06:38:27.721Z,92.90
2019-04-01T06:39:32.241Z,92.80
2019-04-01T06:40:36.651Z,92.70
2019-04-01T06:41:41.110Z,92.50
2019-04-01T06:42:45.610Z,92.30
2019-04-01T06:43:50.439Z,92.10
2019-04-01T06:44:55.071Z,92.00
2019-04-01T06:45:59.505Z,91.80
2019-04-01T06:47:03.986Z,91.70
2019-04-01T06:48:08.396Z,91.60
2019-04-01T06:49:12.891Z,91.40
2019-04-01T06:50:17.216Z,91.40
2019-04-01T06:51:21.575Z,91.30
2019-04-01T06:52:25.990Z,91.00
2019-04-01T06:53:30.604Z,90.80
2019-04-01T06:54:34.946Z,90.50
2019-04-01T06:55:39.887Z,90.30
2019-04-01T06:56:44.311Z,89.70
2019-04-01T06:57:48.717Z,89.20
2019-04-01T06:58:53.280Z,88.90
2019-04-01T06:59:57.993Z,88.30
2019-04-01T07:01:02.511Z,87.90
2019-04-01T07:02:06.995Z,87.40
2019-04-01T07:03:12.582Z,87.50
2019-04-01T07:04:17.014Z,87.10
2019-04-01T07:05:21.495Z,86.20
2019-04-01T07:06:25.928Z,85.60
2019-04-01T07:07:30.464Z,84.40
2019-04-01T07:08:35.024Z,84.00
2019-04-01T07:09:39.408Z,83.10
2019-04-01T07:10:44.103Z,83.10
2019-04-01T07:11:48.592Z,82.00
2019-04-01T07:12:52.955Z,81.60
2019-04-01T07:13:57.406Z,81.00
2019-04-01T07:15:01.884Z,80.80
2019-04-01T07:16:15.314Z,80.20
2019-04-01T07:17:12.503Z,79.50
2019-04-01T07:18:16.894Z,79.20
2019-04-01T07:19:21.383Z,78.80
2019-04-01T07:20:25.944Z,78.70
2019-04-01T07:21:30.393Z,78.40
2019-04-01T07:22:35.246Z,77.10
2019-04-01T07:23:40.235Z,77.30
2019-04-01T07:24:44.733Z,77.20
2019-04-01T07:25:49.119Z,77.30
2019-04-01T07:26:53.501Z,76.60
2019-04-01T07:27:58.026Z,76.00
2019-04-01T07:29:02.680Z,75.30
2019-04-01T07:30:07.728Z,74.70
2019-04-01T07:31:12.274Z,75.10
2019-04-01T07:32:16.680Z,73.30
2019-04-01T07:33:21.217Z,72.50
2019-04-01T07:34:25.758Z,72.70
2019-04-01T07:35:30.207Z,72.10
2019-04-01T07:36:34.632Z,71.50
2019-04-01T07:37:39.257Z,70.70
2019-04-01T07:38:43.741Z,70.40
2019-04-01T07:39:48.219Z,70.40
2019-04-01T07:40:52.951Z,70.40
2019-04-01T07:41:57.373Z,69.20
2019-04-01T07:43:02.000Z,68.40
2019-04-01T07:44:06.419Z,68.60
2019-04-01T07:45:10.875Z,68.40
2019-04-01T07:46:15.707Z,67.90
2019-04-01T07:47:20.515Z,67.60
2019-04-01T07:48:24.836Z,66.70
2019-04-01T07:49:29.293Z,66.30
2019-04-01T07:50:33.756Z,65.40
2019-04-01T07:51:38.914Z,64.90
2019-04-01T07:52:43.505Z,65.00
2019-04-01T07:53:47.993Z,65.10
2019-04-01T07:54:52.438Z,65.20
2019-04-01T07:55:57.150Z,63.70
2019-04-01T07:57:02.156Z,63.60
2019-04-01T07:58:06.765Z,63.80
2019-04-01T07:59:11.219Z,64.50
2019-04-01T08:00:15.795Z,65.10
2019-04-01T08:01:20.215Z,65.80
2019-04-01T08:02:25.125Z,66.20
2019-04-01T08:03:29.486Z,66.40
2019-04-01T08:04:34.052Z,66.50
2019-04-01T08:05:38.426Z,66.20
2019-04-01T08:06:42.756Z,66.50
2019-04-01T08:07:47.439Z,65.60
2019-04-01T08:08:51.950Z,65.70
2019-04-01T08:09:56.536Z,65.60
2019-04-01T08:11:01.059Z,66.70
2019-04-01T08:12:05.567Z,64.70
2019-04-01T08:13:10.078Z,63.70
2019-04-01T08:14:14.359Z,64.10
2019-04-01T08:15:21.387Z,64.20
2019-04-01T08:16:24.884Z,64.00
2019-04-01T08:17:29.356Z,63.10
2019-04-01T08:18:34.203Z,61.50
2019-04-01T08:19:39.013Z,61.20
2019-04-01T08:20:43.513Z,61.60
2019-04-01T08:21:47.824Z,61.50
2019-04-01T08:22:52.215Z,59.90
2019-04-01T08:23:58.107Z,60.00
2019-04-01T08:25:02.591Z,59.70
2019-04-01T08:26:06.962Z,59.90
2019-04-01T08:27:11.380Z,59.60
2019-04-01T08:28:15.808Z,59.00
2019-04-01T08:29:29.978Z,58.00
2019-04-01T08:30:26.463Z,57.50
2019-04-01T08:31:30.808Z,57.40
2019-04-01T08:32:36.011Z,57.00
2019-04-01T08:33:40.755Z,57.00
2019-04-01T08:34:46.164Z,56.60
2019-04-01T08:35:50.776Z,55.90
2019-04-01T08:36:55.363Z,55.60
2019-04-01T08:37:59.934Z,54.50
2019-04-01T08:39:08.305Z,54.20
2019-04-01T08:40:13.060Z,53.60
2019-04-01T08:41:17.589Z,53.30
2019-04-01T08:42:22.142Z,53.70
2019-04-01T08:43:26.583Z,53.80
2019-04-01T08:44:31.088Z,53.50
2019-04-01T08:45:35.604Z,53.60
2019-04-01T08:46:40.053Z,54.20
2019-04-01T08:47:44.494Z,53.80
2019-04-01T08:48:49.414Z,53.40
2019-04-01T08:49:54.039Z,53.00
2019-04-01T08:50:58.604Z,52.70
2019-04-01T08:52:03.578Z,52.70
2019-04-01T08:53:08.179Z,52.40
2019-04-01T08:54:12.623Z,52.40
2019-04-01T08:55:17.115Z,51.60
2019-04-01T08:56:21.546Z,51.40
2019-04-01T08:57:25.912Z,50.80
2019-04-01T08:58:30.390Z,50.90
2019-04-01T08:59:34.909Z,49.60
2019-04-01T09:00:39.324Z,49.00
2019-04-01T09:01:43.780Z,48.50
2019-04-01T09:02:48.519Z,48.70
2019-04-01T09:03:53.550Z,48.00
2019-04-01T09:04:57.964Z,48.30
2019-04-01T09:06:02.533Z,48.30
2019-04-01T09:07:07.211Z,47.10
2019-04-01T09:08:11.705Z,46.90
2019-04-01T09:09:16.292Z,46.90
2019-04-01T09:10:20.668Z,47.30
2019-04-01T09:11:25.301Z,46.20
2019-04-01T09:12:31.293Z,45.20
2019-04-01T09:13:35.859Z,44.70
2019-04-01T09:14:41.402Z,44.70
2019-04-01T09:15:45.744Z,45.40
2019-04-01T09:16:51.299Z,45.70
2019-04-01T09:17:55.672Z,46.00
2019-04-01T09:18:59.970Z,45.70
2019-04-01T09:20:04.801Z,45.20
2019-04-01T09:21:09.251Z,44.60
2019-04-01T09:22:13.865Z,44.70
2019-04-01T09:23:18.568Z,44.80
2019-04-01T09:24:23.149Z,44.90
2019-04-01T09:25:27.602Z,44.70
2019-04-01T09:26:32.055Z,44.70
2019-04-01T09:27:36.539Z,44.40
2019-04-01T09:28:40.875Z,43.80
2019-04-01T09:29:45.307Z,43.40
2019-04-01T09:30:49.815Z,43.40
2019-04-01T09:31:54.408Z,43.30
2019-04-01T09:32:58.750Z,43.60
2019-04-01T09:34:03.237Z,43.30
2019-04-01T09:35:07.890Z,43.70
2019-04-01T09:36:12.364Z,43.50
2019-04-01T09:37:16.804Z,43.60
2019-04-01T09:38:21.159Z,43.80
2019-04-01T09:39:25.589Z,44.00
2019-04-01T09:40:30.034Z,43.80
2019-04-01T09:41:34.607Z,43.70
2019-04-01T09:42:39.261Z,43.10
2019-04-01T09:43:43.737Z,42.70
2019-04-01T09:44:48.184Z,42.70
2019-04-01T09:45:52.794Z,42.40
2019-04-01T09:46:57.355Z,41.90
2019-04-01T09:48:01.748Z,41.80
2019-04-01T09:49:06.271Z,41.50
2019-04-01T09:50:11.046Z,41.70
2019-04-01T09:51:15.494Z,41.90
2019-04-01T09:52:19.898Z,41.90
2019-04-01T09:53:24.439Z,41.80
2019-04-01T09:54:28.801Z,41.70
2019-04-01T09:55:33.116Z,41.70
2019-04-01T09:56:37.619Z,42.20
2019-04-01T09:57:42.023Z,42.40
2019-04-01T09:58:46.436Z,42.80
2019-04-01T09:59:50.747Z,42.90
2019-04-01T10:00:55.158Z,43.00
2019-04-01T10:01:59.631Z,43.10
2019-04-01T10:03:04.201Z,42.90
2019-04-01T10:04:08.596Z,42.30
2019-04-01T10:05:13.405Z,41.80
2019-04-01T10:06:17.852Z,41.60
2019-04-01T10:07:22.359Z,41.60
2019-04-01T10:08:41.117Z,41.20
2019-04-01T10:09:33.091Z,41.40
2019-04-01T10:10:37.519Z,41.70
2019-04-01T10:11:41.888Z,41.70
2019-04-01T10:12:46.412Z,41.80
2019-04-01T10:13:51.000Z,42.40
2019-04-01T10:14:55.330Z,41.90
2019-04-01T10:15:59.652Z,42.10
2019-04-01T10:17:04.074Z,42.40
2019-04-01T10:18:08.580Z,42.50
2019-04-01T10:19:12.931Z,42.20
2019-04-01T10:20:17.448Z,42.30
2019-04-01T10:21:21.877Z,42.40
2019-04-01T10:22:26.223Z,42.40
2019-04-01T10:23:30.684Z,42.50
2019-04-01T10:24:35.055Z,42.50
2019-04-01T10:25:39.409Z,42.70
2019-04-01T10:26:43.743Z,42.40
2019-04-01T10:27:48.269Z,42.40
2019-04-01T10:28:52.799Z,41.90
2019-04-01T10:29:57.219Z,41.50
2019-04-01T10:31:01.655Z,41.40
2019-04-01T10:32:06.092Z,41.50
2019-04-01T10:33:10.501Z,41.10
2019-04-01T10:34:14.855Z,41.00
2019-04-01T10:35:20.876Z,40.90
2019-04-01T10:36:25.297Z,41.00
2019-04-01T10:37:29.751Z,41.40
2019-04-01T10:38:34.136Z,42.10
2019-04-01T10:39:38.642Z,41.70
2019-04-01T10:40:43.554Z,41.70
2019-04-01T10:41:47.991Z,41.80
2019-04-01T10:42:52.461Z,41.20
2019-04-01T10:43:56.907Z,40.00
2019-04-01T10:45:01.356Z,39.40
2019-04-01T10:46:05.666Z,39.10
2019-04-01T10:47:10.139Z,38.40
2019-04-01T10:48:14.845Z,38.00
2019-04-01T10:49:19.411Z,38.40
2019-04-01T10:50:23.953Z,39.00
2019-04-01T10:51:28.352Z,39.30
2019-04-01T10:52:32.761Z,38.60
2019-04-01T10:53:37.228Z,38.80
2019-04-01T10:54:41.710Z,38.70
2019-04-01T10:55:46.333Z,38.30
2019-04-01T10:56:50.718Z,37.60
2019-04-01T10:57:55.059Z,37.20
2019-04-01T10:58:59.511Z,37.10
2019-04-01T11:00:04.446Z,37.30
2019-04-01T11:01:08.986Z,37.50
2019-04-01T11:02:13.473Z,38.30
2019-04-01T11:03:17.997Z,38.20
2019-04-01T11:04:22.696Z,38.60
2019-04-01T11:05:27.133Z,39.00
2019-04-01T11:06:31.562Z,39.00
2019-04-01T11:07:36.043Z,38.80
2019-04-01T11:08:40.635Z,38.70
2019-04-01T11:09:47.362Z,38.90
2019-04-01T11:10:51.941Z,38.60
2019-04-01T11:11:56.312Z,38.90
2019-04-01T11:13:00.621Z,39.30
2019-04-01T11:14:05.072Z,39.80
2019-04-01T11:15:10.022Z,40.50
2019-04-01T11:16:14.532Z,40.30
2019-04-01T11:17:18.998Z,40.00
2019-04-01T11:18:23.539Z,38.60
2019-04-01T11:19:27.961Z,38.60
2019-04-01T11:20:32.304Z,38.30
2019-04-01T11:21:36.681Z,37.70
2019-04-01T11:22:41.187Z,36.90
2019-04-01T11:23:45.624Z,36.50
2019-04-01T11:24:50.097Z,35.80
2019-04-01T11:25:54.427Z,35.40
2019-04-01T11:26:58.942Z,34.50
2019-04-01T11:28:03.411Z,33.30
2019-04-01T11:29:07.899Z,32.40
2019-04-01T11:30:13.939Z,31.60
2019-04-01T11:31:18.688Z,31.20
2019-04-01T11:32:24.442Z,30.20
2019-04-01T11:33:28.899Z,29.60
2019-04-01T11:34:33.409Z,29.10
2019-04-01T11:35:37.944Z,28.60
2019-04-01T11:36:43.213Z,27.80
2019-04-01T11:37:47.825Z,26.70
2019-04-01T11:38:52.218Z,26.50
2019-04-01T11:39:56.656Z,26.00
2019-04-01T11:41:00.999Z,25.10
2019-04-01T11:42:05.504Z,24.90
2019-04-01T11:43:09.979Z,24.10
2019-04-01T11:44:14.496Z,24.10
2019-04-01T11:45:19.059Z,23.70
2019-04-01T11:46:23.740Z,23.30
2019-04-01T11:47:28.227Z,22.80
2019-04-01T11:48:32.650Z,22.20
2019-04-01T11:49:37.059Z,21.60
2019-04-01T11:50:41.413Z,22.10
2019-04-01T11:51:46.004Z,21.40
2019-04-01T11:52:50.436Z,20.70
2019-04-01T11:53:54.875Z,20.40
2019-04-01T11:54:59.239Z,20.10
2019-04-01T11:56:03.586Z,20.60
2019-04-01T11:57:07.979Z,19.90
2019-04-01T11:58:12.305Z,19.90
2019-04-01T11:59:16.795Z,18.70
2019-04-01T12:00:21.239Z,18.40
2019-04-01T12:01:26.887Z,18.30
2019-04-01T12:02:31.276Z,18.60
2019-04-01T12:03:35.599Z,18.70
2019-04-01T12:04:40.032Z,18.80
2019-04-01T12:05:44.340Z,18.50
2019-04-01T12:06:48.738Z,18.60
2019-04-01T12:07:53.169Z,18.20
2019-04-01T12:08:58.175Z,17.60
2019-04-01T12:10:07.300Z,17.40
2019-04-01T12:11:10.083Z,17.30
2019-04-01T12:12:23.599Z,17.30
2019-04-01T12:13:20.745Z,17.10
2019-04-01T12:14:25.397Z,17.10
2019-04-01T12:15:29.750Z,16.80
2019-04-01T12:16:34.134Z,16.70
2019-04-01T12:17:41.411Z,16.80
2019-04-01T12:18:44.803Z,16.50
2019-04-01T12:19:53.053Z,16.20
2019-04-01T12:20:55.892Z,15.90
2019-04-01T12:22:00.432Z,15.90
2019-04-01T12:23:04.756Z,15.60
2019-04-01T12:24:09.446Z,15.40
2019-04-01T12:25:13.937Z,15.10
2019-04-01T12:26:18.342Z,14.90
2019-04-01T12:27:22.716Z,14.40
2019-04-01T12:28:27.255Z,14.30
2019-04-01T12:29:31.688Z,14.20
2019-04-01T12:30:36.103Z,14.40
2019-04-01T12:31:40.479Z,14.20
2019-04-01T12:32:45.002Z,14.00
2019-04-01T12:33:50.067Z,13.90
2019-04-01T12:34:54.630Z,14.00
2019-04-01T12:35:59.047Z,13.90
2019-04-01T12:37:03.396Z,14.00
2019-04-01T12:38:07.843Z,13.70
2019-04-01T12:39:12.304Z,13.30
2019-04-01T12:40:16.775Z,13.30
2019-04-01T12:41:21.261Z,13.20
2019-04-01T12:42:25.671Z,13.80
2019-04-01T12:43:29.975Z,12.90
2019-04-01T12:44:34.377Z,12.50
2019-04-01T12:45:39.232Z,12.20
2019-04-01T12:46:44.492Z,13.30
2019-04-01T12:47:48.997Z,12.80
2019-04-01T12:48:53.298Z,12.50
2019-04-01T12:49:57.615Z,12.60
2019-04-01T12:51:02.147Z,12.60
2019-04-01T12:52:06.557Z,12.50
2019-04-01T12:53:11.040Z,12.30
2019-04-01T12:54:15.609Z,12.00
2019-04-01T12:55:20.152Z,12.10
2019-04-01T12:56:24.464Z,11.80
2019-04-01T12:57:28.807Z,11.90
2019-04-01T12:58:33.115Z,11.60
2019-04-01T12:59:37.507Z,11.60
2019-04-01T13:00:41.866Z,11.80
2019-04-01T13:01:46.310Z,11.80
2019-04-01T13:02:50.795Z,11.80
2019-04-01T13:03:55.207Z,11.80
2019-04-01T13:04:59.592Z,11.70
2019-04-01T13:06:03.955Z,12.00
2019-04-01T13:07:08.560Z,12.10
2019-04-01T13:08:12.948Z,12.10
2019-04-01T13:09:17.420Z,12.20
2019-04-01T13:10:23.160Z,12.60
2019-04-01T13:11:27.663Z,12.30
2019-04-01T13:12:31.983Z,12.10
2019-04-01T13:13:36.307Z,12.30
2019-04-01T13:14:40.718Z,12.60
2019-04-01T13:15:45.131Z,13.00
2019-04-01T13:16:49.540Z,12.80
2019-04-01T13:17:53.962Z,12.70
2019-04-01T13:18:58.392Z,12.50
2019-04-01T13:20:02.858Z,12.00
2019-04-01T13:21:07.165Z,12.10
2019-04-01T13:22:11.572Z,12.20
2019-04-01T13:23:15.984Z,12.20
2019-04-01T13:24:20.359Z,12.90
2019-04-01T13:25:24.812Z,12.50
2019-04-01T13:26:29.195Z,12.70
2019-04-01T13:27:33.679Z,13.00
2019-04-01T13:28:38.011Z,12.80
2019-04-01T13:29:42.389Z,12.70
2019-04-01T13:30:47.143Z,12.50
2019-04-01T13:31:51.680Z,12.10
2019-04-01T13:32:56.411Z,12.00
2019-04-01T13:34:00.793Z,11.90
2019-04-01T13:35:06.342Z,11.90
2019-04-01T13:36:10.661Z,12.20
2019-04-01T13:37:15.039Z,12.00
2019-04-01T13:38:19.519Z,11.90
2019-04-01T13:39:23.962Z,12.20
2019-04-01T13:40:28.487Z,11.10
2019-04-01T13:41:42.153Z,10.90
2019-04-01T13:42:38.988Z,11.10
2019-04-01T13:43:43.321Z,10.90
2019-04-01T13:44:47.667Z,11.20
2019-04-01T13:45:52.059Z,11.00
2019-04-01T13:46:56.422Z,10.80
2019-04-01T13:48:00.974Z,10.80
2019-04-01T13:49:05.287Z,10.70
2019-04-01T13:50:10.307Z,11.10
2019-04-01T13:51:14.736Z,10.80
2019-04-01T13:52:19.168Z,10.70
2019-04-01T13:53:23.655Z,10.90